createdAt,value
2018-06-16T00:00:36.684Z,2.20
2018-06-16T00:03:05.200Z,1.80
2018-06-16T00:05:33.169Z,1.87
2018-06-16T00:08:01.385Z,2.20
2018-06-16T00:10:29.345Z,2.10
2018-06-16T00:12:57.717Z,2.20
2018-06-16T00:15:25.699Z,1.92
2018-06-16T00:17:53.965Z,1.90
2018-06-16T00:20:21.938Z,2.20
2018-06-16T00:22:49.907Z,2.10
2018-06-16T00:25:17.802Z,2.20
2018-06-16T00:27:46.024Z,1.57
2018-06-16T00:30:14.193Z,1.90
2018-06-16T00:32:42.125Z,2.00
2018-06-16T00:35:10.409Z,1.90
2018-06-16T00:37:38.368Z,1.77
2018-06-16T00:40:06.629Z,2.03
2018-06-16T00:42:34.620Z,2.35
2018-06-16T00:45:02.905Z,1.70
2018-06-16T00:47:31.369Z,1.70
2018-06-16T00:49:59.884Z,1.70
2018-06-16T00:52:27.780Z,2.00
2018-06-16T00:54:55.736Z,2.40
2018-06-16T00:57:29.694Z,1.90
2018-06-16T00:59:57.869Z,2.58
2018-06-16T01:02:26.209Z,2.10
2018-06-16T01:04:54.102Z,2.30
2018-06-16T01:07:22.117Z,1.95
2018-06-16T01:09:50.354Z,2.60
2018-06-16T01:12:18.273Z,2.30
2018-06-16T01:14:46.282Z,2.60
2018-06-16T01:17:14.512Z,1.98
2018-06-16T01:19:42.517Z,2.62
2018-06-16T01:22:10.705Z,2.58
2018-06-16T01:24:38.885Z,2.00
2018-06-16T01:27:07.202Z,2.50
2018-06-16T01:29:35.187Z,2.30
2018-06-16T01:32:03.622Z,2.00
2018-06-16T01:34:31.611Z,2.20
2018-06-16T01:36:59.807Z,2.75
2018-06-16T01:39:28.011Z,2.40
2018-06-16T01:41:56.323Z,2.00
2018-06-16T01:44:24.258Z,2.40
2018-06-16T01:46:52.217Z,2.37
2018-06-16T01:49:20.564Z,2.33
2018-06-16T01:51:48.764Z,2.33
2018-06-16T01:54:16.896Z,2.50
2018-06-16T01:56:45.157Z,2.40
2018-06-16T01:59:13.096Z,2.30
2018-06-16T02:01:41.040Z,2.62
2018-06-16T02:04:09.280Z,2.83
2018-06-16T02:06:37.361Z,2.62
2018-06-16T02:09:06.620Z,2.60
2018-06-16T02:11:34.750Z,2.80
2018-06-16T02:14:02.809Z,2.90
2018-06-16T02:16:31.084Z,2.50
2018-06-16T02:18:59.085Z,2.75
2018-06-16T02:21:27.085Z,2.72
2018-06-16T02:23:55.058Z,2.45
2018-06-16T02:26:22.976Z,2.50
2018-06-16T02:28:51.518Z,2.30
2018-06-16T02:31:19.476Z,2.85
2018-06-16T02:33:47.376Z,2.87
2018-06-16T02:36:15.647Z,2.83
2018-06-16T02:38:43.877Z,2.70
2018-06-16T02:41:11.820Z,2.40
2018-06-16T02:43:39.892Z,3.22
2018-06-16T02:46:07.928Z,2.90
2018-06-16T02:48:36.095Z,2.50
2018-06-16T02:51:04.084Z,3.40
2018-06-16T02:53:32.036Z,2.93
2018-06-16T02:56:00.160Z,2.47
2018-06-16T02:58:28.399Z,2.80
2018-06-16T03:00:56.674Z,3.10
2018-06-16T03:03:24.754Z,2.65
2018-06-16T03:05:52.701Z,3.00
2018-06-16T03:08:20.659Z,2.70
2018-06-16T03:10:48.631Z,2.70
2018-06-16T03:13:16.592Z,2.67
2018-06-16T03:15:44.901Z,3.00
2018-06-16T03:18:13.373Z,2.90
2018-06-16T03:20:41.392Z,2.90
2018-06-16T03:23:09.366Z,2.60
2018-06-16T03:25:37.900Z,2.87
2018-06-16T03:28:06.017Z,2.83
2018-06-16T03:30:33.948Z,2.90
2018-06-16T03:33:01.891Z,3.00
2018-06-16T03:35:30.129Z,2.70
2018-06-16T03:37:58.670Z,3.37
2018-06-16T03:40:26.953Z,2.60
2018-06-16T03:42:54.953Z,2.83
2018-06-16T03:45:22.876Z,3.25
2018-06-16T03:47:50.830Z,3.25
2018-06-16T03:50:18.832Z,3.00
2018-06-16T03:52:46.861Z,3.20
2018-06-16T03:55:15.384Z,3.00
2018-06-16T03:57:43.411Z,3.40
2018-06-16T04:00:11.617Z,2.80
2018-06-16T04:02:39.805Z,2.60
2018-06-16T04:05:08.126Z,2.90
2018-06-16T04:07:36.356Z,4.80
2018-06-16T04:10:04.484Z,3.60
2018-06-16T04:12:32.380Z,3.30
2018-06-16T04:15:00.422Z,3.45
2018-06-16T04:17:28.343Z,3.67
2018-06-16T04:19:56.513Z,3.80
2018-06-16T04:22:24.454Z,3.60
2018-06-16T04:24:52.465Z,3.20
2018-06-16T04:30:01.543Z,3.15
2018-06-16T04:32:29.772Z,3.00
2018-06-16T04:34:58.053Z,2.90
2018-06-16T04:37:26.639Z,2.72
2018-06-16T04:39:54.772Z,3.00
2018-06-16T04:42:22.696Z,3.02
2018-06-16T04:44:50.691Z,3.27
2018-06-16T04:47:18.630Z,3.10
2018-06-16T04:49:46.884Z,3.00
2018-06-16T04:52:15.137Z,2.90
2018-06-16T04:54:43.412Z,3.80
2018-06-16T04:57:11.714Z,3.17
2018-06-16T04:59:40.002Z,2.95
2018-06-16T05:02:08.544Z,3.30
2018-06-16T05:04:36.479Z,3.30
2018-06-16T05:07:04.453Z,3.03
2018-06-16T05:09:32.388Z,3.30
2018-06-16T05:12:00.321Z,3.47
2018-06-16T05:14:28.385Z,3.20
2018-06-16T05:16:56.888Z,3.70
2018-06-16T05:19:24.882Z,3.20
2018-06-16T05:21:53.109Z,3.50
2018-06-16T05:24:20.984Z,3.33
2018-06-16T05:26:49.821Z,3.75
2018-06-16T05:29:17.988Z,3.40
2018-06-16T05:31:46.209Z,3.67
2018-06-16T05:34:14.329Z,3.50
2018-06-16T05:36:42.722Z,3.77
2018-06-16T05:39:11.393Z,3.37
2018-06-16T05:41:39.745Z,3.80
2018-06-16T05:44:07.956Z,3.30
2018-06-16T05:46:35.896Z,3.70
2018-06-16T05:49:04.108Z,3.60
2018-06-16T05:51:32.793Z,3.80
2018-06-16T05:54:01.411Z,3.30
2018-06-16T05:56:29.302Z,3.70
2018-06-16T05:58:57.704Z,3.67
2018-06-16T06:01:25.929Z,3.80
2018-06-16T06:03:54.205Z,3.37
2018-06-16T06:06:22.470Z,4.03
2018-06-16T06:08:50.701Z,3.80
2018-06-16T06:11:18.957Z,3.90
2018-06-16T06:13:46.932Z,3.80
2018-06-16T06:16:15.181Z,3.70
2018-06-16T06:18:43.732Z,3.85
2018-06-16T06:21:12.015Z,3.98
2018-06-16T06:23:39.956Z,3.97
2018-06-16T06:26:07.898Z,3.90
2018-06-16T06:28:35.843Z,4.47
2018-06-16T06:31:03.753Z,3.90
2018-06-16T06:33:31.921Z,3.70
2018-06-16T06:35:59.914Z,4.17
2018-06-16T06:38:28.182Z,4.10
2018-06-16T06:40:56.396Z,3.95
2018-06-16T06:43:24.502Z,4.00
2018-06-16T06:45:52.389Z,4.17
2018-06-16T06:48:20.457Z,4.50
2018-06-16T06:50:48.363Z,4.00
2018-06-16T06:53:16.328Z,4.40
2018-06-16T06:55:44.714Z,4.60
2018-06-16T06:58:13.033Z,4.12
2018-06-16T07:00:41.121Z,4.58
2018-06-16T07:03:09.753Z,4.72
2018-06-16T07:05:38.029Z,23.75
2018-06-16T07:08:06.016Z,8.58
2018-06-16T07:10:34.114Z,24.52
2018-06-16T07:13:02.727Z,20.40
2018-06-16T07:15:30.679Z,8.28
2018-06-16T07:17:58.641Z,6.10
2018-06-16T07:20:27.068Z,5.70
2018-06-16T07:22:54.980Z,5.25
2018-06-16T07:25:23.221Z,5.37
2018-06-16T07:27:51.426Z,5.60
2018-06-16T07:30:19.417Z,5.10
2018-06-16T07:32:48.432Z,4.40
2018-06-16T07:35:16.464Z,4.55
2018-06-16T07:37:45.018Z,4.80
2018-06-16T07:40:13.340Z,4.70
2018-06-16T07:42:41.285Z,4.83
2018-06-16T07:45:09.493Z,4.92
2018-06-16T07:47:37.746Z,4.65
2018-06-16T07:50:05.731Z,4.55
2018-06-16T07:52:33.696Z,4.25
2018-06-16T07:55:01.662Z,4.50
2018-06-16T07:57:29.553Z,4.10
2018-06-16T07:59:57.817Z,4.30
2018-06-16T08:02:26.340Z,4.62
2018-06-16T08:04:54.576Z,4.50
2018-06-16T08:07:23.001Z,4.60
2018-06-16T08:09:51.490Z,4.50
2018-06-16T08:12:19.420Z,4.60
2018-06-16T08:14:47.408Z,10.18
2018-06-16T08:17:15.596Z,7.20
2018-06-16T08:19:43.544Z,10.43
2018-06-16T08:22:11.746Z,6.40
2018-06-16T08:24:39.721Z,5.25
2018-06-16T08:27:07.660Z,4.58
2018-06-16T08:29:35.824Z,4.50
2018-06-16T08:32:04.098Z,4.17
2018-06-16T08:34:32.149Z,4.80
2018-06-16T08:37:00.085Z,4.40
2018-06-16T08:39:28.093Z,4.50
2018-06-16T08:41:56.077Z,4.25
2018-06-16T08:44:24.075Z,4.30
2018-06-16T08:46:52.364Z,4.40
2018-06-16T08:49:20.408Z,4.60
2018-06-16T08:51:48.914Z,4.15
2018-06-16T08:54:17.409Z,3.52
2018-06-16T08:56:45.707Z,3.80
2018-06-16T08:59:13.633Z,4.12
2018-06-16T09:01:41.885Z,3.70
2018-06-16T09:04:09.893Z,3.90
2018-06-16T09:06:39.586Z,3.70
2018-06-16T09:09:08.135Z,3.80
2018-06-16T09:11:37.410Z,4.60
2018-06-16T09:14:05.474Z,6.03
2018-06-16T09:16:34.623Z,7.53
2018-06-16T09:19:02.834Z,3.93
2018-06-16T09:21:30.802Z,4.20
2018-06-16T09:23:58.775Z,4.22
2018-06-16T09:26:26.868Z,3.27
2018-06-16T09:28:55.113Z,2.95
2018-06-16T09:31:23.697Z,3.40
2018-06-16T09:33:51.669Z,3.77
2018-06-16T09:36:19.690Z,2.87
2018-06-16T09:38:47.577Z,3.17
2018-06-16T09:41:15.738Z,3.05
2018-06-16T09:43:43.958Z,2.80
2018-06-16T09:46:11.998Z,2.98
2018-06-16T09:48:39.893Z,3.00
2018-06-16T09:51:07.803Z,3.00
2018-06-16T09:53:36.247Z,2.90
2018-06-16T09:56:04.203Z,3.10
2018-06-16T09:58:32.127Z,3.10
2018-06-16T10:01:00.046Z,3.37
2018-06-16T10:03:28.222Z,3.00
2018-06-16T10:05:56.275Z,3.30
2018-06-16T10:08:24.296Z,3.27
2018-06-16T10:10:52.589Z,3.22
2018-06-16T10:13:21.287Z,3.05
2018-06-16T10:15:49.829Z,2.90
2018-06-16T10:18:17.849Z,3.10
2018-06-16T10:20:45.848Z,3.20
2018-06-16T10:23:14.561Z,2.90
2018-06-16T10:25:42.752Z,2.80
2018-06-16T10:28:11.085Z,2.70
2018-06-16T10:30:39.010Z,2.83
2018-06-16T10:33:07.140Z,3.25
2018-06-16T10:35:35.417Z,7.42
2018-06-16T10:38:03.345Z,3.92
2018-06-16T10:40:31.232Z,3.00
2018-06-16T10:42:59.732Z,3.40
2018-06-16T10:45:28.034Z,2.90
2018-06-16T10:47:56.064Z,3.30
2018-06-16T10:50:23.984Z,2.70
2018-06-16T10:52:52.129Z,2.90
2018-06-16T10:55:20.121Z,2.70
2018-06-16T10:57:48.077Z,3.00
2018-06-16T11:00:16.284Z,3.25
2018-06-16T11:02:44.716Z,3.00
2018-06-16T11:05:13.200Z,3.00
2018-06-16T11:07:41.718Z,2.80
2018-06-16T11:10:09.691Z,3.02
2018-06-16T11:12:37.638Z,3.00
2018-06-16T11:15:06.101Z,3.10
2018-06-16T11:17:34.264Z,3.25
2018-06-16T11:20:02.757Z,2.80
2018-06-16T11:22:30.754Z,2.90
2018-06-16T11:24:59.025Z,2.98
2018-06-16T11:27:27.184Z,3.02
2018-06-16T11:29:55.464Z,3.20
2018-06-16T11:32:23.434Z,2.90
2018-06-16T11:34:51.401Z,4.30
2018-06-16T11:37:20.280Z,4.53
2018-06-16T11:39:48.242Z,4.95
2018-06-16T11:42:16.249Z,7.47
2018-06-16T11:44:44.672Z,3.00
2018-06-16T11:47:12.599Z,2.50
2018-06-16T11:49:40.588Z,2.90
2018-06-16T11:52:08.628Z,2.60
2018-06-16T11:54:36.796Z,2.50
2018-06-16T11:57:05.026Z,2.33
2018-06-16T11:59:32.985Z,2.80
2018-06-16T12:02:00.976Z,2.70
2018-06-16T12:04:29.465Z,2.60
2018-06-16T12:06:57.379Z,2.60
2018-06-16T12:09:25.312Z,3.00
2018-06-16T12:11:53.474Z,3.20
2018-06-16T12:14:21.461Z,3.00
2018-06-16T12:16:49.669Z,3.98
2018-06-16T12:19:17.626Z,3.10
2018-06-16T12:21:45.554Z,3.17
2018-06-16T12:24:13.812Z,3.10
2018-06-16T12:26:41.776Z,3.40
2018-06-16T12:29:10.041Z,2.80
2018-06-16T12:31:37.999Z,2.70
2018-06-16T12:34:05.903Z,3.10
2018-06-16T12:36:34.161Z,3.07
2018-06-16T12:39:02.074Z,2.60
2018-06-16T12:41:30.412Z,2.72
2018-06-16T12:43:58.369Z,2.95
2018-06-16T12:46:26.336Z,2.80
2018-06-16T12:48:54.776Z,5.93
2018-06-16T12:51:22.685Z,2.63
2018-06-16T12:53:50.592Z,3.55
2018-06-16T12:56:19.050Z,2.70
2018-06-16T12:58:47.277Z,3.17
2018-06-16T13:01:15.513Z,2.90
2018-06-16T13:03:43.460Z,3.30
2018-06-16T13:06:11.764Z,3.07
2018-06-16T13:08:39.984Z,3.20
2018-06-16T13:11:07.937Z,3.20
2018-06-16T13:13:35.897Z,3.00
2018-06-16T13:16:03.945Z,3.50
2018-06-16T13:18:31.844Z,3.57
2018-06-16T13:20:59.783Z,3.40
2018-06-16T13:23:27.710Z,3.90
2018-06-16T13:25:55.646Z,3.20
2018-06-16T13:28:23.595Z,3.70
2018-06-16T13:30:51.519Z,3.93
2018-06-16T13:33:19.677Z,3.55
2018-06-16T13:35:47.742Z,3.50
2018-06-16T13:38:15.680Z,3.10
2018-06-16T13:40:43.686Z,3.33
2018-06-16T13:43:12.011Z,3.50
2018-06-16T13:45:39.991Z,3.30
2018-06-16T13:48:08.198Z,3.60
2018-06-16T13:50:36.285Z,3.90
2018-06-16T13:53:04.708Z,3.37
2018-06-16T13:55:32.893Z,3.40
2018-06-16T13:58:00.839Z,3.17
2018-06-16T14:00:29.800Z,3.70
2018-06-16T14:02:57.764Z,3.20
2018-06-16T14:05:25.728Z,3.50
2018-06-16T14:07:54.021Z,3.40
2018-06-16T14:10:21.992Z,3.25
2018-06-16T14:12:50.258Z,3.30
2018-06-16T14:15:19.551Z,3.33
2018-06-16T14:17:47.949Z,3.70
2018-06-16T14:20:16.472Z,3.60
2018-06-16T14:22:45.519Z,3.25
2018-06-16T14:25:14.831Z,3.40
2018-06-16T14:27:52.595Z,3.42
2018-06-16T14:30:32.137Z,3.47
2018-06-16T14:33:03.077Z,3.90
2018-06-16T14:35:37.974Z,3.50
2018-06-16T14:38:14.864Z,3.52
2018-06-16T14:40:53.006Z,3.43
2018-06-16T14:43:30.451Z,3.30
2018-06-16T14:46:08.138Z,3.50
2018-06-16T14:48:38.194Z,3.60
2018-06-16T14:51:07.527Z,4.45
2018-06-16T14:53:36.566Z,3.50
2018-06-16T14:56:06.038Z,3.65
2018-06-16T14:58:41.696Z,3.62
2018-06-16T15:01:16.161Z,4.03
2018-06-16T15:03:54.979Z,3.77
2018-06-16T15:06:30.995Z,3.80
2018-06-16T15:09:11.572Z,3.90
2018-06-16T15:11:52.667Z,3.60
2018-06-16T15:14:26.281Z,3.75
2018-06-16T15:17:02.307Z,3.75
2018-06-16T15:19:37.736Z,3.60
2018-06-16T15:22:17.606Z,3.98
2018-06-16T15:24:48.738Z,3.60
2018-06-16T15:27:25.873Z,3.50
2018-06-16T15:29:55.329Z,3.85
2018-06-16T15:32:23.275Z,3.72
2018-06-16T15:34:51.220Z,3.80
2018-06-16T15:37:19.172Z,3.90
2018-06-16T15:39:47.399Z,4.07
2018-06-16T15:42:15.661Z,3.80
2018-06-16T15:44:43.638Z,4.00
2018-06-16T15:47:11.555Z,3.85
2018-06-16T15:49:39.525Z,3.70
2018-06-16T15:52:07.753Z,4.17
2018-06-16T15:54:35.796Z,3.40
2018-06-16T15:57:04.332Z,3.80
2018-06-16T15:59:32.282Z,3.50
2018-06-16T16:02:00.438Z,3.83
2018-06-16T16:04:28.401Z,3.60
2018-06-16T16:06:57.585Z,3.60
2018-06-16T16:09:26.716Z,4.03
2018-06-16T16:11:54.888Z,3.10
2018-06-16T16:14:23.538Z,3.42
2018-06-16T16:16:51.450Z,3.17
2018-06-16T16:19:19.686Z,3.00
2018-06-16T16:21:48.407Z,2.83
2018-06-16T16:24:16.824Z,3.10
2018-06-16T16:26:45.373Z,2.75
2018-06-16T16:29:13.301Z,3.05
2018-06-16T16:31:42.234Z,3.00
2018-06-16T16:34:10.608Z,2.50
2018-06-16T16:36:38.755Z,2.60
2018-06-16T16:39:07.632Z,2.60
2018-06-16T16:41:35.841Z,2.40
2018-06-16T16:44:03.751Z,2.52
2018-06-16T16:46:31.741Z,2.62
2018-06-16T16:48:59.738Z,2.50
2018-06-16T16:51:27.736Z,2.80
2018-06-16T16:53:55.677Z,2.70
2018-06-16T16:56:23.604Z,2.72
2018-06-16T16:58:52.563Z,2.50
2018-06-16T17:01:20.736Z,3.00
2018-06-16T17:03:48.669Z,2.50
2018-06-16T17:06:16.930Z,2.70
2018-06-16T17:08:44.874Z,2.58
2018-06-16T17:11:13.197Z,3.00
2018-06-16T17:13:41.501Z,2.90
2018-06-16T17:16:09.677Z,3.00
2018-06-16T17:18:37.647Z,2.50
2018-06-16T17:21:06.212Z,2.60
2018-06-16T17:23:34.485Z,3.55
2018-06-16T17:26:02.440Z,3.60
2018-06-16T17:28:30.368Z,4.00
2018-06-16T17:30:58.342Z,4.33
2018-06-16T17:33:26.452Z,3.30
2018-06-16T17:35:55.177Z,2.90
2018-06-16T17:38:23.093Z,3.30
2018-06-16T17:40:51.904Z,3.50
2018-06-16T17:43:19.826Z,3.10
2018-06-16T17:45:48.080Z,3.08
2018-06-16T17:48:16.243Z,3.30
2018-06-16T17:50:44.285Z,3.45
2018-06-16T17:53:12.413Z,3.07
2018-06-16T17:55:40.389Z,4.30
2018-06-16T17:58:08.268Z,4.85
2018-06-16T18:00:36.408Z,3.08
2018-06-16T18:03:04.473Z,3.20
2018-06-16T18:05:32.759Z,2.77
2018-06-16T18:08:01.082Z,2.70
2018-06-16T18:10:29.124Z,3.80
2018-06-16T18:12:57.118Z,3.40
2018-06-16T18:15:25.130Z,3.40
2018-06-16T18:18:59.255Z,2.70
2018-06-16T18:21:27.198Z,2.60
2018-06-16T18:23:55.401Z,3.10
2018-06-16T18:26:23.376Z,3.00
2018-06-16T18:28:51.353Z,2.80
2018-06-16T18:31:19.324Z,3.33
2018-06-16T18:33:47.672Z,5.50
2018-06-16T18:36:15.690Z,4.50
2018-06-16T18:38:44.167Z,4.30
2018-06-16T18:41:12.137Z,3.72
2018-06-16T18:43:40.296Z,4.80
2018-06-16T18:46:08.341Z,5.40
2018-06-16T18:48:36.336Z,4.13
2018-06-16T18:51:05.338Z,4.62
2018-06-16T18:53:33.264Z,4.70
2018-06-16T18:56:01.177Z,4.47
2018-06-16T18:58:29.149Z,3.20
2018-06-16T19:00:57.393Z,2.80
2018-06-16T19:03:25.765Z,4.83
2018-06-16T19:05:53.942Z,5.40
2018-06-16T19:08:22.178Z,5.80
2018-06-16T19:10:50.139Z,3.90
2018-06-16T19:13:18.081Z,3.77
2018-06-16T19:15:46.302Z,5.17
2018-06-16T19:18:14.308Z,4.60
2018-06-16T19:20:42.344Z,5.60
2018-06-16T19:23:10.583Z,4.65
2018-06-16T19:25:38.562Z,3.80
2018-06-16T19:28:06.495Z,3.90
2018-06-16T19:30:34.805Z,3.30
2018-06-16T19:33:02.792Z,4.80
2018-06-16T19:35:30.798Z,3.80
2018-06-16T19:37:59.114Z,3.80
2018-06-16T19:40:27.284Z,4.05
2018-06-16T19:42:55.233Z,4.20
2018-06-16T19:45:23.353Z,3.60
2018-06-16T19:47:51.281Z,3.60
2018-06-16T19:50:19.289Z,4.22
2018-06-16T19:52:48.057Z,3.60
2018-06-16T19:55:16.310Z,3.60
2018-06-16T19:57:44.278Z,3.60
2018-06-16T20:00:12.398Z,3.95
2018-06-16T20:02:40.324Z,3.60
2018-06-16T20:05:08.297Z,3.67
2018-06-16T20:07:36.259Z,3.90
2018-06-16T20:10:04.764Z,3.80
2018-06-16T20:12:32.711Z,4.08
2018-06-16T20:15:00.925Z,4.20
2018-06-16T20:17:29.562Z,3.97
2018-06-16T20:19:57.444Z,4.10
2018-06-16T20:22:25.389Z,4.10
2018-06-16T20:24:53.613Z,4.40
2018-06-16T20:27:21.505Z,4.30
2018-06-16T20:29:49.537Z,4.20
2018-06-16T20:32:17.482Z,4.30
2018-06-16T20:34:45.400Z,4.30
2018-06-16T20:37:13.866Z,4.40
2018-06-16T20:39:41.814Z,4.00
2018-06-16T20:42:10.157Z,4.60
2018-06-16T20:44:38.389Z,3.90
2018-06-16T20:47:06.399Z,4.28
2018-06-16T20:49:34.404Z,4.30
2018-06-16T20:52:02.339Z,4.47
2018-06-16T20:54:30.273Z,4.45
2018-06-16T20:56:58.512Z,4.27
2018-06-16T20:59:26.518Z,4.80
2018-06-16T21:01:54.656Z,4.60
2018-06-16T21:04:22.670Z,4.75
2018-06-16T21:06:50.638Z,4.80
2018-06-16T21:09:18.874Z,4.83
2018-06-16T21:11:46.884Z,5.30
2018-06-16T21:14:14.901Z,5.22
2018-06-16T21:16:42.918Z,5.80
2018-06-16T21:19:11.020Z,5.50
2018-06-16T21:21:39.082Z,5.03
2018-06-16T21:24:07.529Z,5.60
2018-06-16T21:26:35.595Z,5.10
2018-06-16T21:29:03.621Z,5.25
2018-06-16T21:31:31.966Z,6.08
2018-06-16T21:33:59.949Z,6.00
2018-06-16T21:36:28.233Z,5.62
2018-06-16T21:38:56.169Z,5.85
2018-06-16T21:41:24.292Z,5.67
2018-06-16T21:43:52.342Z,5.20
2018-06-16T21:46:20.309Z,5.80
2018-06-16T21:48:48.331Z,6.20
2018-06-16T21:51:16.542Z,6.00
2018-06-16T21:53:44.557Z,6.20
2018-06-16T21:56:12.513Z,5.40
2018-06-16T21:58:40.434Z,5.50
2018-06-16T22:01:08.612Z,7.80
2018-06-16T22:03:36.648Z,6.10
2018-06-16T22:06:04.584Z,5.40
2018-06-16T22:11:13.089Z,5.15
2018-06-16T22:13:41.096Z,5.30
2018-06-16T22:16:09.241Z,5.40
2018-06-16T22:18:37.200Z,5.50
2018-06-16T22:21:05.461Z,5.58
2018-06-16T22:23:34.384Z,5.30
2018-06-16T22:26:02.361Z,5.10
2018-06-16T22:28:30.868Z,5.10
2018-06-16T22:30:59.367Z,5.30
2018-06-16T22:33:27.605Z,5.70
2018-06-16T22:35:56.141Z,5.37
2018-06-16T22:38:24.120Z,5.10
2018-06-16T22:40:52.096Z,5.40
2018-06-16T22:43:20.191Z,5.90
2018-06-16T22:45:49.410Z,5.10
2018-06-16T22:48:18.074Z,5.30
2018-06-16T22:50:46.017Z,5.30
2018-06-16T22:53:14.829Z,5.95
2018-06-16T22:55:43.152Z,6.83
2018-06-16T22:58:11.066Z,5.53
2018-06-16T23:00:40.066Z,5.00
2018-06-16T23:03:08.246Z,5.80
2018-06-16T23:05:36.191Z,5.87
2018-06-16T23:08:04.383Z,5.87
2018-06-16T23:10:32.609Z,5.80
2018-06-16T23:13:01.042Z,5.83
2018-06-16T23:15:29.015Z,5.60
2018-06-16T23:17:57.320Z,5.67
2018-06-16T23:20:25.774Z,5.60
2018-06-16T23:22:53.688Z,5.90
2018-06-16T23:25:21.653Z,6.63
2018-06-16T23:27:49.622Z,6.10
2018-06-16T23:30:17.581Z,6.58
2018-06-16T23:32:45.925Z,6.00
2018-06-16T23:35:14.065Z,6.10
2018-06-16T23:37:42.277Z,5.80
2018-06-16T23:40:10.462Z,5.90
2018-06-16T23:42:38.468Z,6.70
2018-06-16T23:45:06.372Z,5.87
2018-06-16T23:47:34.633Z,6.70
2018-06-16T23:50:02.929Z,6.50
2018-06-16T23:52:30.940Z,7.55
2018-06-16T23:54:59.394Z,6.53
2018-06-16T23:57:27.398Z,6.90
2018-06-16T23:59:55.358Z,7.10
